Time,TemperatureF,DewpointF,PressureIn,WindDirection,WindDirectionDegrees,WindSpeedMPH,WindSpeedGustMPH,Humidity,HourlyPrecipIn,Conditions,Clouds,dailyrainin,SoftwareType,DateUTC
2013-02-01 00:00:00,20.1,12.9,-100.00,West,263,11.0,11.0,73,-99.99,,,0.00,LWC V2.10 B1813,2013-02-01 05:00:00,
2013-02-01 00:05:00,19.8,13.1,-100.00,WNW,303,6.3,12.3,75,-99.99,,,0.00,LWC V2.10 B1813,2013-02-01 05:05:00,
2013-02-01 00:07:00,19.8,13.4,-100.00,WSW,258,5.8,8.1,76,-99.99,,,0.00,LWC V2.10 B1813,2013-02-01 05:07:00,
2013-02-01 00:12:00,19.4,12.5,-100.00,WSW,246,4.9,16.8,74,-99.99,,,0.00,LWC V2.10 B1813,2013-02-01 05:12:00,
2013-02-01 00:17:00,19.0,11.8,-100.00,SW,232,16.3,16.3,73,-99.99,,,0.00,LWC V2.10 B1813,2013-02-01 05:17:00,
2013-02-01 00:22:00,18.9,10.7,-100.00,West,276,8.3,16.8,70,-99.99,,,0.00,LWC V2.10 B1813,2013-02-01 05:22:00,
2013-02-01 00:27:00,18.7,9.6,-100.00,WSW,250,9.6,11.0,67,-99.99,,,0.00,LWC V2.10 B1813,2013-02-01 05:27:00,
2013-02-01 00:32:00,18.5,10.4,-100.00,West,261,7.6,14.5,70,-99.99,,,0.00,LWC V2.10 B1813,2013-02-01 05:32:00,
2013-02-01 00:37:00,18.1,10.7,-100.00,SSW,207,8.1,14.5,72,-99.99,,,0.00,LWC V2.10 B1813,2013-02-01 05:37:00,
2013-02-01 00:42:00,17.8,10.6,-100.00,SSW,211,8.7,11.4,73,-99.99,,,0.00,LWC V2.10 B1813,2013-02-01 05:42:00,
2013-02-01 00:47:00,17.2,10.1,-100.00,SSW,211,10.5,10.5,73,-99.99,,,0.00,LWC V2.10 B1813,2013-02-01 05:47:00,
2013-02-01 00:52:00,16.9,9.8,-100.00,West,260,12.8,14.5,73,-99.99,,,0.00,LWC V2.10 B1813,2013-02-01 05:52:00,
2013-02-01 00:57:00,16.9,10.1,-100.00,SSW,204,4.9,8.7,74,-99.99,,,0.00,LWC V2.10 B1813,2013-02-01 05:57:00,
2013-02-01 01:02:00,16.7,10.2,-100.00,SSW,200,5.4,10.5,75,-99.99,,,0.00,LWC V2.10 B1813,2013-02-01 06:02:00,
2013-02-01 01:07:00,16.3,9.8,-100.00,SW,224,10.1,16.8,75,-99.99,,,0.00,LWC V2.10 B1813,2013-02-01 06:07:00,
2013-02-01 01:12:00,16.0,9.8,-100.00,SW,233,15.0,15.0,76,-99.99,,,0.00,LWC V2.10 B1813,2013-02-01 06:12:00,
2013-02-01 01:16:00,16.0,9.8,-100.00,SW,217,5.8,11.0,76,-99.99,,,0.00,LWC V2.10 B1813,2013-02-01 06:16:00,
2013-02-01 01:21:00,15.8,9.6,-100.00,WSW,246,17.0,17.0,76,-99.99,,,0.00,LWC V2.10 B1813,2013-02-01 06:21:00,
2013-02-01 01:26:00,15.8,8.4,-100.00,West,270,11.4,14.1,72,-99.99,,,0.00,LWC V2.10 B1813,2013-02-01 06:26:00,
2013-02-01 01:31:00,15.8,8.4,-100.00,WNW,291,6.3,8.7,72,-99.99,,,0.00,LWC V2.10 B1813,2013-02-01 06:31:00,
2013-02-01 01:36:00,15.6,8.2,-100.00,West,262,9.6,12.3,72,-99.99,,,0.00,LWC V2.10 B1813,2013-02-01 06:36:00,
2013-02-01 01:41:00,15.4,6.5,-100.00,SSW,202,9.6,13.2,67,-99.99,,,0.00,LWC V2.10 B1813,2013-02-01 06:41:00,
2013-02-01 01:42:00,15.4,6.5,-100.00,South,186,8.7,13.2,67,-99.99,,,0.00,LWC V2.10 B1813,2013-02-01 06:42:00,
2013-02-01 01:47:00,15.4,5.5,-100.00,SW,224,10.1,10.1,64,-99.99,,,0.00,LWC V2.10 B1813,2013-02-01 06:47:00,
2013-02-01 01:52:00,15.4,7.4,-100.00,SSW,205,7.6,10.1,70,-99.99,,,0.00,LWC V2.10 B1813,2013-02-01 06:52:00,
2013-02-01 01:57:00,14.9,7.8,-100.00,South,175,10.5,13.2,73,-99.99,,,0.00,LWC V2.10 B1813,2013-02-01 06:57:00,
2013-02-01 02:02:00,14.9,7.8,-100.00,SW,223,12.8,12.8,73,-99.99,,,0.00,LWC V2.10 B1813,2013-02-01 07:02:00,
2013-02-01 02:07:00,14.9,5.0,-100.00,WSW,240,8.7,19.7,64,-99.99,,,0.00,LWC V2.10 B1813,2013-02-01 07:07:00,
2013-02-01 02:12:00,14.9,4.3,-100.00,SW,216,8.1,13.2,62,-99.99,,,0.00,LWC V2.10 B1813,2013-02-01 07:12:00,
2013-02-01 02:17:00,14.9,5.3,-100.00,SW,215,5.4,10.1,65,-99.99,,,0.00,LWC V2.10 B1813,2013-02-01 07:17:00,
2013-02-01 02:22:00,14.5,4.3,-100.00,SSW,206,8.7,17.0,63,-99.99,,,0.00,LWC V2.10 B1813,2013-02-01 07:22:00,
2013-02-01 02:27:00,14.4,3.4,-100.00,WNW,288,12.8,15.4,61,-99.99,,,0.00,LWC V2.10 B1813,2013-02-01 07:27:00,
2013-02-01 02:32:00,14.4,3.4,-100.00,WSW,243,12.8,12.8,61,-99.99,,,0.00,LWC V2.10 B1813,2013-02-01 07:32:00,
2013-02-01 02:37:00,14.2,4.3,-100.00,South,185,11.0,11.0,64,-99.99,,,0.00,LWC V2.10 B1813,2013-02-01 07:37:00,
2013-02-01 02:42:00,14.2,4.3,-100.00,SW,217,9.6,12.8,64,-99.99,,,0.00,LWC V2.10 B1813,2013-02-01 07:42:00,
2013-02-01 02:47:00,13.8,3.6,-100.00,SSW,198,9.6,10.1,63,-99.99,,,0.00,LWC V2.10 B1813,2013-02-01 07:47:00,
2013-02-01 02:52:00,13.6,3.4,-100.00,South,171,8.1,18.8,63,-99.99,,,0.00,LWC V2.10 B1813,2013-02-01 07:52:00,
2013-02-01 02:57:00,13.6,3.4,-100.00,SW,229,11.0,13.6,63,-99.99,,,0.00,LWC V2.10 B1813,2013-02-01 07:57:00,
2013-02-01 03:02:00,13.5,3.2,-100.00,SW,219,18.8,26.2,63,-99.99,,,0.00,LWC V2.10 B1813,2013-02-01 08:02:00,
2013-02-01 03:07:00,13.1,2.9,-100.00,SW,224,10.5,13.6,63,-99.99,,,0.00,LWC V2.10 B1813,2013-02-01 08:07:00,
2013-02-01 03:12:00,12.9,2.7,-100.00,WSW,240,10.5,15.0,63,-99.99,,,0.00,LWC V2.10 B1813,2013-02-01 08:12:00,
2013-02-01 03:17:00,12.7,2.6,-100.00,SW,216,12.3,12.3,63,-99.99,,,0.00,LWC V2.10 B1813,2013-02-01 08:17:00,
2013-02-01 03:22:00,12.7,2.6,-100.00,SSW,212,12.8,15.4,63,-99.99,,,0.00,LWC V2.10 B1813,2013-02-01 08:22:00,
2013-02-01 03:27:00,12.6,2.4,-100.00,WSW,237,8.7,19.7,63,-99.99,,,0.00,LWC V2.10 B1813,2013-02-01 08:27:00,
2013-02-01 03:32:00,12.4,2.2,-100.00,SSW,212,8.7,13.2,63,-99.99,,,0.00,LWC V2.10 B1813,2013-02-01 08:32:00,
2013-02-01 03:38:00,12.2,2.0,-100.00,SW,221,11.4,15.0,63,-99.99,,,0.00,LWC V2.10 B1813,2013-02-01 08:38:00,
2013-02-01 03:43:00,12.2,2.0,-100.00,WSW,257,6.3,13.2,63,-99.99,,,0.00,LWC V2.10 B1813,2013-02-01 08:43:00,
2013-02-01 03:48:00,12.0,1.9,-100.00,WSW,238,7.2,9.6,63,-99.99,,,0.00,LWC V2.10 B1813,2013-02-01 08:48:00,
2013-02-01 03:53:00,12.0,1.9,-100.00,SSW,197,8.3,11.0,63,-99.99,,,0.00,LWC V2.10 B1813,2013-02-01 08:53:00,
2013-02-01 03:58:00,11.7,1.5,-100.00,SW,216,8.3,14.5,63,-99.99,,,0.00,LWC V2.10 B1813,2013-02-01 08:58:00,
2013-02-01 04:03:00,11.5,1.4,-100.00,WSW,244,19.7,19.7,63,-99.99,,,0.00,LWC V2.10 B1813,2013-02-01 09:03:00,
2013-02-01 04:08:00,11.3,1.2,-100.00,SW,233,13.2,17.0,63,-99.99,,,0.00,LWC V2.10 B1813,2013-02-01 09:08:00,
2013-02-01 04:13:00,11.3,1.2,-100.00,West,264,6.7,10.1,63,-99.99,,,0.00,LWC V2.10 B1813,2013-02-01 09:13:00,
2013-02-01 04:18:00,11.3,1.2,-100.00,SW,226,7.6,13.2,63,-99.99,,,0.00,LWC V2.10 B1813,2013-02-01 09:18:00,
2013-02-01 04:23:00,11.1,1.0,-100.00,South,183,5.8,10.5,63,-99.99,,,0.00,LWC V2.10 B1813,2013-02-01 09:23:00,
2013-02-01 04:28:00,11.1,1.0,-100.00,WSW,253,15.4,15.9,63,-99.99,,,0.00,LWC V2.10 B1813,2013-02-01 09:28:00,
2013-02-01 04:33:00,11.1,1.0,-100.00,SW,230,7.6,13.2,63,-99.99,,,0.00,LWC V2.10 B1813,2013-02-01 09:33:00,
2013-02-01 04:38:00,10.9,0.9,-100.00,SSW,196,8.1,12.3,63,-99.99,,,0.00,LWC V2.10 B1813,2013-02-01 09:38:00,
2013-02-01 04:43:00,10.6,0.5,-100.00,SSW,196,11.0,15.0,63,-99.99,,,0.00,LWC V2.10 B1813,2013-02-01 09:43:00,
2013-02-01 04:48:00,10.4,0.3,-100.00,WSW,243,5.4,15.4,63,-99.99,,,0.00,LWC V2.10 B1813,2013-02-01 09:48:00,
2013-02-01 04:53:00,10.4,0.3,-100.00,SW,217,7.6,19.7,63,-99.99,,,0.00,LWC V2.10 B1813,2013-02-01 09:53:00,
2013-02-01 04:58:00,10.0,0.0,-100.00,WSW,241,6.3,15.4,63,-99.99,,,0.00,LWC V2.10 B1813,2013-02-01 09:58:00,
2013-02-01 05:03:00,9.7,-0.3,-100.00,SSW,211,11.0,11.0,63,-99.99,,,0.00,LWC V2.10 B1813,2013-02-01 10:03:00,
2013-02-01 05:08:00,9.5,-0.5,-100.00,SSW,193,12.8,14.5,63,-99.99,,,0.00,LWC V2.10 B1813,2013-02-01 10:08:00,
2013-02-01 05:13:00,9.3,-0.7,-100.00,SSE,158,16.3,16.3,63,-99.99,,,0.00,LWC V2.10 B1813,2013-02-01 10:13:00,
2013-02-01 05:18:00,9.1,-0.9,-100.00,SW,216,15.4,15.4,63,-99.99,,,0.00,LWC V2.10 B1813,2013-02-01 10:18:00,
2013-02-01 05:23:00,8.8,-1.2,-100.00,South,184,7.6,10.5,63,-99.99,,,0.00,LWC V2.10 B1813,2013-02-01 10:23:00,
2013-02-01 05:28:00,8.8,-1.2,-100.00,SW,233,10.1,23.3,63,-99.99,,,0.00,LWC V2.10 B1813,2013-02-01 10:28:00,
2013-02-01 05:33:00,8.8,-1.2,-100.00,South,173,16.8,16.8,63,-99.99,,,0.00,LWC V2.10 B1813,2013-02-01 10:33:00,
2013-02-01 05:38:00,8.6,-1.4,-100.00,SW,224,14.5,19.2,63,-99.99,,,0.00,LWC V2.10 B1813,2013-02-01 10:38:00,
2013-02-01 05:43:00,8.6,-1.4,-100.00,SW,217,15.0,15.0,63,-99.99,,,0.00,LWC V2.10 B1813,2013-02-01 10:43:00,
2013-02-01 05:48:00,8.6,-1.4,-100.00,SSW,195,15.0,16.8,63,-99.99,,,0.00,LWC V2.10 B1813,2013-02-01 10:48:00,
2013-02-01 05:53:00,8.4,-1.5,-100.00,SSW,194,8.1,14.5,63,-99.99,,,0.00,LWC V2.10 B1813,2013-02-01 10:53:00,
2013-02-01 05:58:00,8.2,-1.7,-100.00,SW,215,8.3,15.4,63,-99.99,,,0.00,LWC V2.10 B1813,2013-02-01 10:58:00,
2013-02-01 06:03:00,8.2,-1.7,-100.00,WSW,250,6.3,17.0,63,-99.99,,,0.00,LWC V2.10 B1813,2013-02-01 11:03:00,
2013-02-01 06:08:00,8.1,-1.9,-100.00,WSW,239,5.8,8.1,63,-99.99,,,0.00,LWC V2.10 B1813,2013-02-01 11:08:00,
2013-02-01 06:13:00,8.1,-1.9,-100.00,SW,227,16.3,16.3,63,-99.99,,,0.00,LWC V2.10 B1813,2013-02-01 11:13:00,
2013-02-01 06:18:00,7.9,-2.1,-100.00,SSW,203,12.3,12.3,63,-99.99,,,0.00,LWC V2.10 B1813,2013-02-01 11:18:00,
2013-02-01 06:23:00,7.7,-2.2,-100.00,WSW,249,8.1,10.5,63,-99.99,,,0.00,LWC V2.10 B1813,2013-02-01 11:23:00,
2013-02-01 06:28:00,7.7,-2.2,-100.00,SSW,195,10.5,10.5,63,-99.99,,,0.00,LWC V2.10 B1813,2013-02-01 11:28:00,
2013-02-01 06:33:00,7.7,-2.2,-100.00,SW,223,12.3,12.3,63,-99.99,,,0.00,LWC V2.10 B1813,2013-02-01 11:33:00,
2013-02-01 06:38:00,7.7,-2.2,-100.00,SW,235,13.6,13.6,63,-99.99,,,0.00,LWC V2.10 B1813,2013-02-01 11:38:00,
2013-02-01 06:43:00,7.7,-2.2,-100.00,SSW,211,8.7,13.2,63,-99.99,,,0.00,LWC V2.10 B1813,2013-02-01 11:43:00,
2013-02-01 06:48:00,7.5,-2.4,-100.00,SSW,203,6.3,12.8,63,-99.99,,,0.00,LWC V2.10 B1813,2013-02-01 11:48:00,
2013-02-01 06:53:00,7.5,-2.4,-100.00,SSW,200,8.3,8.3,63,-99.99,,,0.00,LWC V2.10 B1813,2013-02-01 11:53:00,
2013-02-01 06:58:00,7.5,-2.4,-100.00,SSW,196,12.3,12.8,63,-99.99,,,0.00,LWC V2.10 B1813,2013-02-01 11:58:00,
2013-02-01 07:03:00,7.3,-2.6,-100.00,SSW,192,8.7,8.7,63,-99.99,,,0.00,LWC V2.10 B1813,2013-02-01 12:03:00,
2013-02-01 07:08:00,7.3,-2.6,-100.00,SW,217,8.3,12.3,63,-99.99,,,0.00,LWC V2.10 B1813,2013-02-01 12:08:00,
2013-02-01 07:13:00,7.3,-2.6,-100.00,SW,231,5.8,10.5,63,-99.99,,,0.00,LWC V2.10 B1813,2013-02-01 12:13:00,
2013-02-01 07:18:00,7.3,-2.6,-100.00,SW,236,8.3,12.8,63,-99.99,,,0.00,LWC V2.10 B1813,2013-02-01 12:18:00,
2013-02-01 07:23:00,7.3,-2.6,-100.00,SSW,211,6.3,6.3,63,-99.99,,,0.00,LWC V2.10 B1813,2013-02-01 12:23:00,
2013-02-01 07:28:00,7.3,-2.6,-100.00,SSW,194,6.3,12.3,63,-99.99,,,0.00,LWC V2.10 B1813,2013-02-01 12:28:00,
2013-02-01 07:33:00,7.5,-2.4,-100.00,SSW,205,11.4,11.4,63,-99.99,,,0.00,LWC V2.10 B1813,2013-02-01 12:33:00,
2013-02-01 07:38:00,7.5,-2.4,-100.00,South,183,6.7,10.5,63,-99.99,,,0.00,LWC V2.10 B1813,2013-02-01 12:38:00,
2013-02-01 07:43:00,7.5,-2.4,-100.00,SSW,207,6.3,13.2,63,-99.99,,,0.00,LWC V2.10 B1813,2013-02-01 12:43:00,
2013-02-01 07:48:00,7.3,-2.6,-100.00,SSW,193,8.3,8.3,63,-99.99,,,0.00,LWC V2.10 B1813,2013-02-01 12:48:00,
2013-02-01 07:53:00,7.2,-2.7,-100.00,South,191,11.0,15.0,63,-99.99,,,0.00,LWC V2.10 B1813,2013-02-01 12:53:00,
2013-02-01 07:58:00,7.2,-2.7,-100.00,SSW,194,11.0,12.3,63,-99.99,,,0.00,LWC V2.10 B1813,2013-02-01 12:58:00,
2013-02-01 08:03:00,7.0,-2.9,-100.00,SW,230,11.4,12.3,63,-99.99,,,0.00,LWC V2.10 B1813,2013-02-01 13:03:00,
2013-02-01 08:08:00,7.2,-2.7,-100.00,SW,233,12.3,12.3,63,-99.99,,,0.00,LWC V2.10 B1813,2013-02-01 13:08:00,
2013-02-01 08:13:00,7.3,-2.6,-100.00,SSW,203,13.2,14.5,63,-99.99,,,0.00,LWC V2.10 B1813,2013-02-01 13:13:00,
2013-02-01 08:18:00,7.5,-2.4,-100.00,SSW,204,10.5,10.5,63,-99.99,,,0.00,LWC V2.10 B1813,2013-02-01 13:18:00,
2013-02-01 08:23:00,7.7,-2.2,-100.00,SW,234,8.1,9.6,63,-99.99,,,0.00,LWC V2.10 B1813,2013-02-01 13:23:00,
2013-02-01 08:28:00,7.7,-2.2,-100.00,SSW,198,8.1,13.2,63,-99.99,,,0.00,LWC V2.10 B1813,2013-02-01 13:28:00,
2013-02-01 08:33:00,7.7,-2.2,-100.00,SSW,199,10.5,10.5,63,-99.99,,,0.00,LWC V2.10 B1813,2013-02-01 13:33:00,
2013-02-01 08:38:00,7.7,-2.2,-100.00,SSW,200,8.7,14.1,63,-99.99,,,0.00,LWC V2.10 B1813,2013-02-01 13:38:00,
2013-02-01 08:43:00,7.7,-2.2,-100.00,SW,234,12.3,13.2,63,-99.99,,,0.00,LWC V2.10 B1813,2013-02-01 13:43:00,
2013-02-01 08:48:00,7.9,-2.1,-100.00,SSW,204,9.2,9.2,63,-99.99,,,0.00,LWC V2.10 B1813,2013-02-01 13:48:00,
2013-02-01 08:53:00,8.1,-1.9,-100.00,South,181,5.8,13.2,63,-99.99,,,0.00,LWC V2.10 B1813,2013-02-01 13:53:00,
2013-02-01 08:58:00,8.1,-1.9,-100.00,SW,225,10.1,10.1,63,-99.99,,,0.00,LWC V2.10 B1813,2013-02-01 13:58:00,
2013-02-01 09:03:00,8.1,-1.9,-100.00,West,275,10.1,11.0,63,-99.99,,,0.00,LWC V2.10 B1813,2013-02-01 14:03:00,
2013-02-01 09:08:00,7.9,-2.1,-100.00,SSW,203,9.2,10.1,63,-99.99,,,0.00,LWC V2.10 B1813,2013-02-01 14:08:00,
2013-02-01 09:13:00,8.1,-1.9,-100.00,SSW,209,12.3,13.2,63,-99.99,,,0.00,LWC V2.10 B1813,2013-02-01 14:13:00,
2013-02-01 09:18:00,8.8,-1.2,-100.00,West,260,7.2,10.5,63,-99.99,,,0.00,LWC V2.10 B1813,2013-02-01 14:18:00,
2013-02-01 09:23:00,8.6,-1.4,-100.00,SSW,205,10.5,10.5,63,-99.99,,,0.00,LWC V2.10 B1813,2013-02-01 14:23:00,
2013-02-01 09:28:00,8.8,-1.2,-100.00,SSE,152,7.6,11.0,63,-99.99,,,0.00,LWC V2.10 B1813,2013-02-01 14:28:00,
2013-02-01 09:33:00,9.1,-0.9,-100.00,South,185,7.6,8.3,63,-99.99,,,0.00,LWC V2.10 B1813,2013-02-01 14:33:00,
2013-02-01 09:38:00,8.8,-1.2,-100.00,SSW,195,8.7,10.5,63,-99.99,,,0.00,LWC V2.10 B1813,2013-02-01 14:38:00,
2013-02-01 09:43:00,9.1,-0.9,-100.00,SSW,203,8.3,11.0,63,-99.99,,,0.00,LWC V2.10 B1813,2013-02-01 14:43:00,
2013-02-01 09:48:00,9.0,-1.0,-100.00,South,173,8.1,13.2,63,-99.99,,,0.00,LWC V2.10 B1813,2013-02-01 14:48:00,
2013-02-01 09:53:00,9.1,-0.9,-100.00,South,184,7.2,10.5,63,-99.99,,,0.00,LWC V2.10 B1813,2013-02-01 14:53:00,
2013-02-01 09:58:00,9.5,-0.5,-100.00,SSW,205,10.5,10.5,63,-99.99,,,0.00,LWC V2.10 B1813,2013-02-01 14:58:00,
2013-02-01 10:03:00,9.7,-0.3,-100.00,SSE,150,8.3,10.5,63,-99.99,,,0.00,LWC V2.10 B1813,2013-02-01 15:03:00,
2013-02-01 10:08:00,10.2,0.2,-100.00,SW,216,6.3,15.0,63,-99.99,,,0.00,LWC V2.10 B1813,2013-02-01 15:08:00,
2013-02-01 10:13:00,10.0,0.0,-100.00,SSW,200,10.1,12.3,63,-99.99,,,0.00,LWC V2.10 B1813,2013-02-01 15:13:00,
2013-02-01 10:18:00,9.5,-0.5,-100.00,SSW,197,5.8,6.3,63,-99.99,,,0.00,LWC V2.10 B1813,2013-02-01 15:18:00,
2013-02-01 10:23:00,9.5,-0.5,-100.00,South,182,6.3,12.8,63,-99.99,,,0.00,LWC V2.10 B1813,2013-02-01 15:23:00,
2013-02-01 10:28:00,9.7,-0.3,-100.00,SSW,193,14.5,14.5,63,-99.99,,,0.00,LWC V2.10 B1813,2013-02-01 15:28:00,
2013-02-01 10:34:00,10.2,0.2,-100.00,SSW,193,4.9,10.5,63,-99.99,,,0.00,LWC V2.10 B1813,2013-02-01 15:34:00,
2013-02-01 10:39:00,10.8,0.7,-100.00,SSW,209,6.3,10.1,63,-99.99,,,0.00,LWC V2.10 B1813,2013-02-01 15:39:00,
2013-02-01 10:44:00,10.9,0.9,-100.00,SW,219,7.6,10.1,63,-99.99,,,0.00,LWC V2.10 B1813,2013-02-01 15:44:00,
2013-02-01 10:49:00,10.0,0.0,-100.00,SSW,209,12.3,12.3,63,-99.99,,,0.00,LWC V2.10 B1813,2013-02-01 15:49:00,
2013-02-01 10:54:00,10.6,0.5,-100.00,SSW,199,11.0,12.8,63,-99.99,,,0.00,LWC V2.10 B1813,2013-02-01 15:54:00,
2013-02-01 10:59:00,11.1,1.0,-100.00,SSW,206,5.8,13.2,63,-99.99,,,0.00,LWC V2.10 B1813,2013-02-01 15:59:00,
2013-02-01 11:04:00,11.1,1.0,-100.00,SSW,194,8.7,10.1,63,-99.99,,,0.00,LWC V2.10 B1813,2013-02-01 16:04:00,
2013-02-01 11:09:00,11.8,1.7,-100.00,SW,234,10.5,12.8,63,-99.99,,,0.00,LWC V2.10 B1813,2013-02-01 16:09:00,
2013-02-01 11:14:00,12.6,2.4,-100.00,South,171,10.1,10.5,63,-99.99,,,0.00,LWC V2.10 B1813,2013-02-01 16:14:00,
2013-02-01 11:19:00,11.7,1.5,-100.00,South,175,8.1,9.6,63,-99.99,,,0.00,LWC V2.10 B1813,2013-02-01 16:19:00,
2013-02-01 11:24:00,11.1,1.0,-100.00,South,176,10.5,12.8,63,-99.99,,,0.00,LWC V2.10 B1813,2013-02-01 16:24:00,
2013-02-01 11:29:00,11.1,1.0,-100.00,South,169,5.8,8.3,63,-99.99,,,0.00,LWC V2.10 B1813,2013-02-01 16:29:00,
2013-02-01 11:34:00,11.1,1.0,-100.00,SSW,198,8.1,15.4,63,-99.99,,,0.00,LWC V2.10 B1813,2013-02-01 16:34:00,
2013-02-01 11:39:00,11.5,1.4,-100.00,SSW,202,8.3,12.8,63,-99.99,,,0.00,LWC V2.10 B1813,2013-02-01 16:39:00,
2013-02-01 11:44:00,10.9,0.9,-100.00,SSE,164,8.3,11.0,63,-99.99,,,0.00,LWC V2.10 B1813,2013-02-01 16:44:00,
2013-02-01 11:49:00,12.0,1.9,-100.00,SSW,211,13.2,13.2,63,-99.99,,,0.00,LWC V2.10 B1813,2013-02-01 16:49:00,
2013-02-01 11:54:00,12.9,2.7,-100.00,SSW,197,8.3,11.9,63,-99.99,,,0.00,LWC V2.10 B1813,2013-02-01 16:54:00,
2013-02-01 11:59:00,12.4,2.2,-100.00,SSW,204,8.7,11.0,63,-99.99,,,0.00,LWC V2.10 B1813,2013-02-01 16:59:00,
2013-02-01 12:04:00,11.8,1.7,-100.00,SSW,192,8.7,12.8,63,-99.99,,,0.00,LWC V2.10 B1813,2013-02-01 17:04:00,
2013-02-01 12:09:00,12.0,1.9,-100.00,SSW,202,11.0,13.2,63,-99.99,,,0.00,LWC V2.10 B1813,2013-02-01 17:09:00,
2013-02-01 12:14:00,12.9,2.7,-100.00,SSW,196,8.3,10.5,63,-99.99,,,0.00,LWC V2.10 B1813,2013-02-01 17:14:00,
2013-02-01 12:19:00,12.9,2.7,-100.00,SSW,199,10.1,10.1,63,-99.99,,,0.00,LWC V2.10 B1813,2013-02-01 17:19:00,
2013-02-01 12:24:00,12.2,2.0,-100.00,SSW,199,10.5,13.2,63,-99.99,,,0.00,LWC V2.10 B1813,2013-02-01 17:24:00,
2013-02-01 12:29:00,13.3,3.1,-100.00,South,170,5.4,8.7,63,-99.99,,,0.00,LWC V2.10 B1813,2013-02-01 17:29:00,
2013-02-01 12:34:00,12.6,2.4,-100.00,SSW,203,10.5,16.3,63,-99.99,,,0.00,LWC V2.10 B1813,2013-02-01 17:34:00,
2013-02-01 12:39:00,12.7,2.6,-100.00,South,187,8.1,11.0,63,-99.99,,,0.00,LWC V2.10 B1813,2013-02-01 17:39:00,
2013-02-01 12:44:00,12.7,2.6,-100.00,SW,236,8.1,8.7,63,-99.99,,,0.00,LWC V2.10 B1813,2013-02-01 17:44:00,
2013-02-01 12:49:00,13.1,2.9,-100.00,SSW,209,8.7,10.5,63,-99.99,,,0.00,LWC V2.10 B1813,2013-02-01 17:49:00,
2013-02-01 12:54:00,12.9,2.7,-100.00,SSW,212,8.1,11.0,63,-99.99,,,0.00,LWC V2.10 B1813,2013-02-01 17:54:00,
2013-02-01 12:59:00,12.0,1.9,-100.00,South,181,7.6,11.0,63,-99.99,,,0.00,LWC V2.10 B1813,2013-02-01 17:59:00,
2013-02-01 13:04:00,13.3,3.1,-100.00,SW,215,12.8,12.8,63,-99.99,,,0.00,LWC V2.10 B1813,2013-02-01 18:04:00,
2013-02-01 13:09:00,14.4,-2.6,-100.00,SSW,200,8.1,8.3,46,-99.99,,,0.00,LWC V2.10 B1813,2013-02-01 18:09:00,
2013-02-01 13:14:00,12.9,-3.9,-100.00,South,176,8.1,11.0,46,-99.99,,,0.00,LWC V2.10 B1813,2013-02-01 18:14:00,
2013-02-01 13:19:00,12.7,-4.1,-100.00,South,189,8.7,13.2,46,-99.99,,,0.00,LWC V2.10 B1813,2013-02-01 18:19:00,
2013-02-01 13:24:00,14.5,-2.0,-100.00,South,180,4.0,10.5,47,-99.99,,,0.00,LWC V2.10 B1813,2013-02-01 18:24:00,
2013-02-01 13:29:00,16.0,-1.6,-100.00,SW,229,8.1,8.7,45,-99.99,,,0.00,LWC V2.10 B1813,2013-02-01 18:29:00,
2013-02-01 13:34:00,15.3,-2.2,-100.00,South,187,5.8,10.1,45,-99.99,,,0.00,LWC V2.10 B1813,2013-02-01 18:34:00,
2013-02-01 13:39:00,13.6,-3.7,-100.00,SW,218,10.1,11.9,45,-99.99,,,0.00,LWC V2.10 B1813,2013-02-01 18:39:00,
2013-02-01 13:44:00,12.9,-4.4,-100.00,SSW,210,10.5,11.4,45,-99.99,,,0.00,LWC V2.10 B1813,2013-02-01 18:44:00,
2013-02-01 13:49:00,14.2,-2.8,-100.00,South,172,8.1,8.1,46,-99.99,,,0.00,LWC V2.10 B1813,2013-02-01 18:49:00,
2013-02-01 13:54:00,12.2,-4.6,-100.00,SSW,202,10.1,12.8,46,-99.99,,,0.00,LWC V2.10 B1813,2013-02-01 18:54:00,
2013-02-01 13:59:00,13.1,-3.8,-100.00,SW,227,15.0,15.0,46,-99.99,,,0.00,LWC V2.10 B1813,2013-02-01 18:59:00,
2013-02-01 14:04:00,12.7,-4.1,-100.00,South,185,8.7,13.2,46,-99.99,,,0.00,LWC V2.10 B1813,2013-02-01 19:04:00,
2013-02-01 14:09:00,13.3,-3.6,-100.00,South,174,10.1,10.5,46,-99.99,,,0.00,LWC V2.10 B1813,2013-02-01 19:09:00,
2013-02-01 14:14:00,12.6,-4.2,-100.00,SSW,197,5.8,12.8,46,-99.99,,,0.00,LWC V2.10 B1813,2013-02-01 19:14:00,
2013-02-01 14:19:00,12.6,-4.2,-100.00,SW,216,8.1,9.6,46,-99.99,,,0.00,LWC V2.10 B1813,2013-02-01 19:19:00,
2013-02-01 14:24:00,13.3,-3.6,-100.00,South,188,5.4,10.5,46,-99.99,,,0.00,LWC V2.10 B1813,2013-02-01 19:24:00,
2013-02-01 14:29:00,13.6,-3.3,-100.00,SSW,201,8.3,12.3,46,-99.99,,,0.00,LWC V2.10 B1813,2013-02-01 19:29:00,
2013-02-01 14:34:00,12.9,-3.9,-100.00,SSW,200,11.0,13.2,46,-99.99,,,0.00,LWC V2.10 B1813,2013-02-01 19:34:00,
2013-02-01 14:39:00,13.5,-3.4,-100.00,South,184,6.7,13.2,46,-99.99,,,0.00,LWC V2.10 B1813,2013-02-01 19:39:00,
2013-02-01 14:44:00,13.5,-3.4,-100.00,South,189,10.1,11.0,46,-99.99,,,0.00,LWC V2.10 B1813,2013-02-01 19:44:00,
2013-02-01 14:49:00,12.6,-4.2,-100.00,SSW,203,12.3,14.1,46,-99.99,,,0.00,LWC V2.10 B1813,2013-02-01 19:49:00,
2013-02-01 14:54:00,13.3,-3.6,-100.00,South,174,4.0,8.7,46,-99.99,,,0.00,LWC V2.10 B1813,2013-02-01 19:54:00,
2013-02-01 14:59:00,14.4,-2.6,-100.00,South,180,8.1,10.5,46,-99.99,,,0.00,LWC V2.10 B1813,2013-02-01 19:59:00,
2013-02-01 15:04:00,13.3,-3.6,-100.00,South,173,8.3,13.2,46,-99.99,,,0.00,LWC V2.10 B1813,2013-02-01 20:04:00,
2013-02-01 15:09:00,13.3,-3.6,-100.00,South,174,5.4,12.8,46,-99.99,,,0.00,LWC V2.10 B1813,2013-02-01 20:09:00,
2013-02-01 15:14:00,13.5,-3.4,-100.00,SW,227,9.2,15.9,46,-99.99,,,0.00,LWC V2.10 B1813,2013-02-01 20:14:00,
2013-02-01 15:19:00,14.9,-2.1,-100.00,SSW,196,8.1,8.1,46,-99.99,,,0.00,LWC V2.10 B1813,2013-02-01 20:19:00,
2013-02-01 15:24:00,15.4,-2.1,-100.00,South,187,5.8,12.3,45,-99.99,,,0.00,LWC V2.10 B1813,2013-02-01 20:24:00,
2013-02-01 15:29:00,14.2,-3.2,-100.00,SSW,210,10.5,14.5,45,-99.99,,,0.00,LWC V2.10 B1813,2013-02-01 20:29:00,
2013-02-01 15:34:00,13.3,-4.0,-100.00,SSW,193,5.8,11.0,45,-99.99,,,0.00,LWC V2.10 B1813,2013-02-01 20:34:00,
2013-02-01 15:39:00,13.3,-4.0,-100.00,SW,217,10.5,10.5,45,-99.99,,,0.00,LWC V2.10 B1813,2013-02-01 20:39:00,
2013-02-01 15:44:00,13.3,-4.0,-100.00,South,184,8.1,12.8,45,-99.99,,,0.00,LWC V2.10 B1813,2013-02-01 20:44:00,
2013-02-01 15:49:00,13.3,-4.0,-100.00,SSW,195,10.5,10.5,45,-99.99,,,0.00,LWC V2.10 B1813,2013-02-01 20:49:00,
2013-02-01 15:54:00,13.1,-4.2,-100.00,SSW,199,8.3,8.7,45,-99.99,,,0.00,LWC V2.10 B1813,2013-02-01 20:54:00,
2013-02-01 15:59:00,13.5,-3.9,-100.00,South,186,6.3,10.1,45,-99.99,,,0.00,LWC V2.10 B1813,2013-02-01 20:59:00,
2013-02-01 16:04:00,13.5,-3.9,-100.00,SW,226,7.6,9.6,45,-99.99,,,0.00,LWC V2.10 B1813,2013-02-01 21:04:00,
2013-02-01 16:09:00,14.2,-2.8,-100.00,SSW,205,8.1,8.1,46,-99.99,,,0.00,LWC V2.10 B1813,2013-02-01 21:09:00,
2013-02-01 16:14:00,13.8,-2.6,-100.00,SW,217,11.0,12.8,47,-99.99,,,0.00,LWC V2.10 B1813,2013-02-01 21:14:00,
2013-02-01 16:19:00,13.3,-3.1,-100.00,SSW,195,10.1,12.8,47,-99.99,,,0.00,LWC V2.10 B1813,2013-02-01 21:19:00,
2013-02-01 16:24:00,13.5,-3.0,-100.00,SSW,199,8.7,14.1,47,-99.99,,,0.00,LWC V2.10 B1813,2013-02-01 21:24:00,
2013-02-01 16:29:00,13.5,-3.0,-100.00,SSE,166,8.3,11.4,47,-99.99,,,0.00,LWC V2.10 B1813,2013-02-01 21:29:00,
2013-02-01 16:34:00,13.6,-2.8,-100.00,South,174,8.3,11.0,47,-99.99,,,0.00,LWC V2.10 B1813,2013-02-01 21:34:00,
2013-02-01 16:40:00,13.5,-3.0,-100.00,South,184,9.2,13.2,47,-99.99,,,0.00,LWC V2.10 B1813,2013-02-01 21:40:00,
2013-02-01 16:45:00,12.9,-3.5,-100.00,SSW,204,7.6,11.0,47,-99.99,,,0.00,LWC V2.10 B1813,2013-02-01 21:45:00,
2013-02-01 16:50:00,12.9,-3.5,-100.00,SSE,165,6.3,13.2,47,-99.99,,,0.00,LWC V2.10 B1813,2013-02-01 21:50:00,
2013-02-01 16:55:00,12.9,-3.5,-100.00,South,185,4.0,6.3,47,-99.99,,,0.00,LWC V2.10 B1813,2013-02-01 21:55:00,
2013-02-01 17:00:00,13.1,-3.3,-100.00,SSE,162,6.7,11.9,47,-99.99,,,0.00,LWC V2.10 B1813,2013-02-01 22:00:00,
2013-02-01 17:05:00,13.3,-3.1,-100.00,South,191,5.8,6.3,47,-99.99,,,0.00,LWC V2.10 B1813,2013-02-01 22:05:00,
2013-02-01 17:10:00,13.3,-3.1,-100.00,SSW,201,6.3,12.3,47,-99.99,,,0.00,LWC V2.10 B1813,2013-02-01 22:10:00,
2013-02-01 17:15:00,13.3,-3.1,-100.00,SSW,201,8.3,10.5,47,-99.99,,,0.00,LWC V2.10 B1813,2013-02-01 22:15:00,
2013-02-01 17:20:00,12.9,-3.5,-100.00,South,180,8.3,11.0,47,-99.99,,,0.00,LWC V2.10 B1813,2013-02-01 22:20:00,
2013-02-01 17:25:00,12.9,-3.5,-100.00,SSW,207,8.1,11.0,47,-99.99,,,0.00,LWC V2.10 B1813,2013-02-01 22:25:00,
2013-02-01 17:30:00,12.7,-3.6,-100.00,SSW,205,8.3,14.5,47,-99.99,,,0.00,LWC V2.10 B1813,2013-02-01 22:30:00,
2013-02-01 17:35:00,12.9,-3.5,-100.00,SSW,197,8.1,9.2,47,-99.99,,,0.00,LWC V2.10 B1813,2013-02-01 22:35:00,
2013-02-01 17:40:00,12.9,-3.5,-100.00,South,190,6.3,8.1,47,-99.99,,,0.00,LWC V2.10 B1813,2013-02-01 22:40:00,
2013-02-01 17:45:00,12.7,-3.6,-100.00,SSW,192,8.7,13.2,47,-99.99,,,0.00,LWC V2.10 B1813,2013-02-01 22:45:00,
2013-02-01 17:50:00,12.9,-3.5,-100.00,South,185,6.3,12.3,47,-99.99,,,0.00,LWC V2.10 B1813,2013-02-01 22:50:00,
2013-02-01 17:55:00,12.9,-3.5,-100.00,SSW,192,5.8,10.1,47,-99.99,,,0.00,LWC V2.10 B1813,2013-02-01 22:55:00,
2013-02-01 18:00:00,12.9,-3.5,-100.00,South,186,7.6,12.8,47,-99.99,,,0.00,LWC V2.10 B1813,2013-02-01 23:00:00,
2013-02-01 18:05:00,12.9,-3.5,-100.00,SW,215,8.7,8.7,47,-99.99,,,0.00,LWC V2.10 B1813,2013-02-01 23:05:00,
2013-02-01 18:10:00,12.9,-3.5,-100.00,South,191,8.3,8.7,47,-99.99,,,0.00,LWC V2.10 B1813,2013-02-01 23:10:00,
2013-02-01 18:15:00,13.1,-3.3,-100.00,SSW,212,6.3,8.7,47,-99.99,,,0.00,LWC V2.10 B1813,2013-02-01 23:15:00,
2013-02-01 18:20:00,13.1,-3.3,-100.00,SSW,197,8.1,9.6,47,-99.99,,,0.00,LWC V2.10 B1813,2013-02-01 23:20:00,
2013-02-01 18:25:00,13.1,-3.3,-100.00,SW,220,8.3,8.3,47,-99.99,,,0.00,LWC V2.10 B1813,2013-02-01 23:25:00,
2013-02-01 18:30:00,13.1,-3.3,-100.00,SSW,205,7.6,12.3,47,-99.99,,,0.00,LWC V2.10 B1813,2013-02-01 23:30:00,
2013-02-01 18:35:00,13.1,-3.3,-100.00,SSW,192,8.1,10.1,47,-99.99,,,0.00,LWC V2.10 B1813,2013-02-01 23:35:00,
2013-02-01 18:40:00,13.1,-3.3,-100.00,South,191,8.3,10.1,47,-99.99,,,0.00,LWC V2.10 B1813,2013-02-01 23:40:00,
2013-02-01 18:45:00,13.3,-3.1,-100.00,SSW,203,4.0,5.8,47,-99.99,,,0.00,LWC V2.10 B1813,2013-02-01 23:45:00,
2013-02-01 18:50:00,13.3,-3.1,-100.00,SSW,193,4.0,6.3,47,-99.99,,,0.00,LWC V2.10 B1813,2013-02-01 23:50:00,
2013-02-01 18:55:00,13.3,-3.1,-100.00,SSW,192,5.4,7.6,47,-99.99,,,0.00,LWC V2.10 B1813,2013-02-01 23:55:00,
2013-02-01 19:00:00,13.3,-3.1,-100.00,SSW,200,9.6,10.1,47,-99.99,,,0.00,LWC V2.10 B1813,2013-02-02 00:00:00,
2013-02-01 19:05:00,13.3,-3.1,-100.00,South,182,4.0,4.0,47,-99.99,,,0.00,LWC V2.10 B1813,2013-02-02 00:05:00,
2013-02-01 19:10:00,13.3,-3.1,-100.00,SSW,200,6.7,8.1,47,-99.99,,,0.00,LWC V2.10 B1813,2013-02-02 00:10:00,
2013-02-01 19:15:00,13.3,-3.1,-100.00,SSW,206,6.3,8.7,47,-99.99,,,0.00,LWC V2.10 B1813,2013-02-02 00:15:00,
2013-02-01 19:20:00,13.3,-3.1,-100.00,SSW,192,5.8,7.6,47,-99.99,,,0.00,LWC V2.10 B1813,2013-02-02 00:20:00,
2013-02-01 19:25:00,13.1,-3.3,-100.00,South,185,5.8,6.3,47,-99.99,,,0.00,LWC V2.10 B1813,2013-02-02 00:25:00,
2013-02-01 19:30:00,12.9,-3.5,-100.00,SSE,166,4.0,5.8,47,-99.99,,,0.00,LWC V2.10 B1813,2013-02-02 00:30:00,
2013-02-01 19:35:00,12.9,-3.5,-100.00,South,176,8.3,10.5,47,-99.99,,,0.00,LWC V2.10 B1813,2013-02-02 00:35:00,
2013-02-01 19:40:00,12.7,-3.6,-100.00,South,185,5.8,10.5,47,-99.99,,,0.00,LWC V2.10 B1813,2013-02-02 00:40:00,
2013-02-01 19:45:00,12.7,-3.6,-100.00,South,181,4.0,8.7,47,-99.99,,,0.00,LWC V2.10 B1813,2013-02-02 00:45:00,
2013-02-01 19:50:00,12.7,-3.6,-100.00,SSW,200,5.4,6.3,47,-99.99,,,0.00,LWC V2.10 B1813,2013-02-02 00:50:00,
2013-02-01 19:55:00,12.6,-3.8,-100.00,South,174,4.0,6.3,47,-99.99,,,0.00,LWC V2.10 B1813,2013-02-02 00:55:00,
2013-02-01 20:00:00,12.2,-4.1,-100.00,South,177,5.8,6.3,47,-99.99,,,0.00,LWC V2.10 B1813,2013-02-02 01:00:00,
2013-02-01 20:05:00,12.2,-4.1,-100.00,SSW,203,5.4,6.7,47,-99.99,,,0.00,LWC V2.10 B1813,2013-02-02 01:05:00,
2013-02-01 20:10:00,12.2,-4.1,-100.00,SSW,204,5.8,7.6,47,-99.99,,,0.00,LWC V2.10 B1813,2013-02-02 01:10:00,
2013-02-01 20:15:00,12.0,-4.3,-100.00,SSW,196,6.3,8.3,47,-99.99,,,0.00,LWC V2.10 B1813,2013-02-02 01:15:00,
2013-02-01 20:20:00,11.8,-4.5,-100.00,SSE,167,6.3,7.2,47,-99.99,,,0.00,LWC V2.10 B1813,2013-02-02 01:20:00,
2013-02-01 20:25:00,11.8,-4.5,-100.00,South,188,5.4,5.4,47,-99.99,,,0.00,LWC V2.10 B1813,2013-02-02 01:25:00,
2013-02-01 20:30:00,11.8,-4.5,-100.00,South,170,5.8,5.8,47,-99.99,,,0.00,LWC V2.10 B1813,2013-02-02 01:30:00,
2013-02-01 20:35:00,11.8,-4.5,-100.00,SSE,166,5.4,5.8,47,-99.99,,,0.00,LWC V2.10 B1813,2013-02-02 01:35:00,
2013-02-01 20:40:00,11.7,-4.6,-100.00,South,180,5.8,5.8,47,-99.99,,,0.00,LWC V2.10 B1813,2013-02-02 01:40:00,
2013-02-01 20:45:00,11.7,-4.6,-100.00,South,187,5.8,6.3,47,-99.99,,,0.00,LWC V2.10 B1813,2013-02-02 01:45:00,
2013-02-01 20:50:00,11.7,-4.6,-100.00,South,170,5.8,6.3,47,-99.99,,,0.00,LWC V2.10 B1813,2013-02-02 01:50:00,
2013-02-01 20:55:00,11.5,-4.8,-100.00,South,173,5.4,5.8,47,-99.99,,,0.00,LWC V2.10 B1813,2013-02-02 01:55:00,
2013-02-01 21:00:00,11.3,-5.0,-100.00,South,190,5.8,5.8,47,-99.99,,,0.00,LWC V2.10 B1813,2013-02-02 02:00:00,
2013-02-01 21:05:00,11.5,-4.8,-100.00,South,170,4.5,6.3,47,-99.99,,,0.00,LWC V2.10 B1813,2013-02-02 02:05:00,
2013-02-01 21:10:00,11.3,-5.0,-100.00,SSW,197,3.6,5.4,47,-99.99,,,0.00,LWC V2.10 B1813,2013-02-02 02:10:00,
2013-02-01 21:15:00,11.3,-5.0,-100.00,South,180,3.6,5.8,47,-99.99,,,0.00,LWC V2.10 B1813,2013-02-02 02:15:00,
2013-02-01 21:20:00,11.3,-5.0,-100.00,South,172,5.8,6.3,47,-99.99,,,0.00,LWC V2.10 B1813,2013-02-02 02:20:00,
2013-02-01 21:25:00,11.3,-5.0,-100.00,SSE,164,4.9,6.7,47,-99.99,,,0.00,LWC V2.10 B1813,2013-02-02 02:25:00,
2013-02-01 21:30:00,11.1,-5.1,-100.00,SSW,201,5.4,5.8,47,-99.99,,,0.00,LWC V2.10 B1813,2013-02-02 02:30:00,
2013-02-01 21:35:00,11.3,-5.0,-100.00,South,173,4.0,5.4,47,-99.99,,,0.00,LWC V2.10 B1813,2013-02-02 02:35:00,
2013-02-01 21:40:00,11.1,-5.1,-100.00,South,186,3.6,5.4,47,-99.99,,,0.00,LWC V2.10 B1813,2013-02-02 02:40:00,
2013-02-01 21:45:00,10.9,-5.3,-100.00,SSW,192,4.0,4.9,47,-99.99,,,0.00,LWC V2.10 B1813,2013-02-02 02:45:00,
2013-02-01 21:50:00,10.9,-5.3,-100.00,SSW,205,5.8,5.8,47,-99.99,,,0.00,LWC V2.10 B1813,2013-02-02 02:50:00,
2013-02-01 21:55:00,10.9,-5.3,-100.00,SSW,196,5.4,5.4,47,-99.99,,,0.00,LWC V2.10 B1813,2013-02-02 02:55:00,
2013-02-01 22:00:00,10.8,-5.5,-100.00,SSW,193,5.8,5.8,47,-99.99,,,0.00,LWC V2.10 B1813,2013-02-02 03:00:00,
2013-02-01 22:05:00,10.9,-5.3,-100.00,South,191,3.6,5.4,47,-99.99,,,0.00,LWC V2.10 B1813,2013-02-02 03:05:00,
2013-02-01 22:10:00,10.8,-5.5,-100.00,South,187,4.0,5.8,47,-99.99,,,0.00,LWC V2.10 B1813,2013-02-02 03:10:00,
2013-02-01 22:15:00,10.6,-5.6,-100.00,SSW,192,4.0,5.4,47,-99.99,,,0.00,LWC V2.10 B1813,2013-02-02 03:15:00,
2013-02-01 22:20:00,10.4,-5.8,-100.00,South,184,2.7,4.0,47,-99.99,,,0.00,LWC V2.10 B1813,2013-02-02 03:20:00,
2013-02-01 22:25:00,10.0,-6.1,-100.00,South,181,3.1,3.6,47,-99.99,,,0.00,LWC V2.10 B1813,2013-02-02 03:25:00,
2013-02-01 22:30:00,10.0,-6.1,-100.00,South,182,2.2,3.6,47,-99.99,,,0.00,LWC V2.10 B1813,2013-02-02 03:30:00,
2013-02-01 22:35:00,10.0,-6.1,-100.00,South,182,3.6,3.6,47,-99.99,,,0.00,LWC V2.10 B1813,2013-02-02 03:35:00,
2013-02-01 22:40:00,10.0,-6.1,-100.00,South,181,3.1,3.1,47,-99.99,,,0.00,LWC V2.10 B1813,2013-02-02 03:40:00,
2013-02-01 22:45:00,10.0,-6.1,-100.00,South,182,0.0,3.1,47,-99.99,,,0.00,LWC V2.10 B1813,2013-02-02 03:45:00,
2013-02-01 22:50:00,9.7,-6.5,-100.00,South,182,0.0,0.0,47,-99.99,,,0.00,LWC V2.10 B1813,2013-02-02 03:50:00,
2013-02-01 22:55:00,9.5,-6.6,-100.00,South,182,0.0,0.0,47,-99.99,,,0.00,LWC V2.10 B1813,2013-02-02 03:55:00,
2013-02-01 23:00:00,9.3,-6.8,-100.00,South,182,0.0,0.0,47,-99.99,,,0.00,LWC V2.10 B1813,2013-02-02 04:00:00,
2013-02-01 23:05:00,9.3,-6.8,-100.00,South,183,2.7,3.6,47,-99.99,,,0.00,LWC V2.10 B1813,2013-02-02 04:05:00,
2013-02-01 23:10:00,9.1,-7.0,-100.00,South,184,2.7,3.1,47,-99.99,,,0.00,LWC V2.10 B1813,2013-02-02 04:10:00,
2013-02-01 23:15:00,9.0,-7.1,-100.00,South,184,0.0,0.0,47,-99.99,,,0.00,LWC V2.10 B1813,2013-02-02 04:15:00,
2013-02-01 23:20:00,8.8,-7.3,-100.00,South,184,0.0,0.0,47,-99.99,,,0.00,LWC V2.10 B1813,2013-02-02 04:20:00,
2013-02-01 23:25:00,9.1,-7.0,-100.00,South,184,0.0,0.0,47,-99.99,,,0.00,LWC V2.10 B1813,2013-02-02 04:25:00,
2013-02-01 23:31:00,9.3,-6.8,-100.00,South,184,3.1,3.1,47,-99.99,,,0.00,LWC V2.10 B1813,2013-02-02 04:31:00,
2013-02-01 23:36:00,9.5,-6.6,-100.00,South,184,3.6,3.6,47,-99.99,,,0.00,LWC V2.10 B1813,2013-02-02 04:36:00,
2013-02-01 23:41:00,9.5,-6.6,-100.00,South,184,2.7,3.1,47,-99.99,,,0.00,LWC V2.10 B1813,2013-02-02 04:41:00,
2013-02-01 23:46:00,9.3,-6.8,-100.00,South,184,2.2,2.7,47,-99.99,,,0.00,LWC V2.10 B1813,2013-02-02 04:46:00,
2013-02-01 23:51:00,9.5,-6.6,-100.00,South,184,2.7,3.1,47,-99.99,,,0.00,LWC V2.10 B1813,2013-02-02 04:51:00,
2013-02-01 23:56:00,9.5,-6.6,-100.00,South,184,3.1,3.1,47,-99.99,,,0.00,LWC V2.10 B1813,2013-02-02 04:56:00,